sensor_id;sensor_type;location;lat;lon;timestamp;P1;durP1;ratioP1;P2;durP2;ratioP2
61675;SDS011;47574;52.090;5.244;2023-10-31T00:00:48;2.7;;;1.5;;
61675;SDS011;47574;52.090;5.244;2023-10-31T00:02:24;2.8;;;1.5;;
61675;SDS011;47574;52.090;5.244;2023-10-31T00:04:00;3.1;;;1.11;;
61675;SDS011;47574;52.090;5.244;2023-10-31T00:07:12;3.8;;;1.4;;
61675;SDS011;47574;52.090;5.244;2023-10-31T00:08:48;2.31;;;1.2;;
61675;SDS011;47574;52.090;5.244;2023-10-31T00:10:25;2.8;;;1.3;;
61675;SDS011;47574;52.090;5.244;2023-10-31T00:13:38;2.5;;;1.5;;
61675;SDS011;47574;52.090;5.244;2023-10-31T00:15:14;3.7;;;2.0;;
61675;SDS011;47574;52.090;5.244;2023-10-31T00:16:50;4.0;;;2.4;;
61675;SDS011;47574;52.090;5.244;2023-10-31T00:18:26;5.0;;;2.8;;
61675;SDS011;47574;52.090;5.244;2023-10-31T00:21:39;4.3;;;3.4;;
61675;SDS011;47574;52.090;5.244;2023-10-31T00:23:15;6.5;;;3.5;;
61675;SDS011;47574;52.090;5.244;2023-10-31T00:24:51;6.0;;;4.0;;
61675;SDS011;47574;52.090;5.244;2023-10-31T00:28:04;8.81;;;4.91;;
61675;SDS011;47574;52.090;5.244;2023-10-31T00:29:40;5.6;;;4.91;;
61675;SDS011;47574;52.090;5.244;2023-10-31T00:31:16;5.7;;;5.0;;
61675;SDS011;47574;52.090;5.244;2023-10-31T00:34:28;7.8;;;5.5;;
61675;SDS011;47574;52.090;5.244;2023-10-31T00:36:04;9.31;;;6.3;;
61675;SDS011;47574;52.090;5.244;2023-10-31T00:37:40;7.8;;;6.6;;
61675;SDS011;47574;52.090;5.244;2023-10-31T00:39:16;7.9;;;6.9;;
61675;SDS011;47574;52.090;5.244;2023-10-31T00:42:29;9.0;;;6.8;;
61675;SDS011;47574;52.090;5.244;2023-10-31T00:44:05;9.21;;;8.2;;
61675;SDS011;47574;52.090;5.244;2023-10-31T00:45:41;9.0;;;7.9;;
61675;SDS011;47574;52.090;5.244;2023-10-31T00:48:53;9.0;;;8.1;;
61675;SDS011;47574;52.090;5.244;2023-10-31T00:50:29;8.81;;;7.9;;
61675;SDS011;47574;52.090;5.244;2023-10-31T00:52:05;10.21;;;8.2;;
61675;SDS011;47574;52.090;5.244;2023-10-31T00:55:17;9.9;;;8.71;;
61675;SDS011;47574;52.090;5.244;2023-10-31T00:56:53;10.1;;;9.0;;
61675;SDS011;47574;52.090;5.244;2023-10-31T00:58:30;10.21;;;8.4;;
61675;SDS011;47574;52.090;5.244;2023-10-31T01:01:44;8.6;;;7.6;;
61675;SDS011;47574;52.090;5.244;2023-10-31T01:03:20;8.6;;;7.7;;
61675;SDS011;47574;52.090;5.244;2023-10-31T01:06:32;8.4;;;7.1;;
61675;SDS011;47574;52.090;5.244;2023-10-31T01:09:44;7.5;;;6.8;;
61675;SDS011;47574;52.090;5.244;2023-10-31T01:11:20;8.2;;;6.5;;
61675;SDS011;47574;52.090;5.244;2023-10-31T01:12:56;7.6;;;4.8;;
61675;SDS011;47574;52.090;5.244;2023-10-31T01:16:09;5.9;;;5.3;;
61675;SDS011;47574;52.090;5.244;2023-10-31T01:17:45;8.71;;;4.61;;
61675;SDS011;47574;52.090;5.244;2023-10-31T01:19:21;6.3;;;4.5;;
61675;SDS011;47574;52.090;5.244;2023-10-31T01:22:33;5.11;;;3.9;;
61675;SDS011;47574;52.090;5.244;2023-10-31T01:24:09;6.6;;;3.7;;
61675;SDS011;47574;52.090;5.244;2023-10-31T01:25:45;4.41;;;3.5;;
61675;SDS011;47574;52.090;5.244;2023-10-31T01:28:57;4.91;;;3.1;;
61675;SDS011;47574;52.090;5.244;2023-10-31T01:30:33;5.6;;;2.9;;
61675;SDS011;47574;52.090;5.244;2023-10-31T01:32:10;4.41;;;3.4;;
61675;SDS011;47574;52.090;5.244;2023-10-31T01:33:46;7.7;;;4.5;;
61675;SDS011;47574;52.090;5.244;2023-10-31T01:36:58;7.9;;;4.5;;
61675;SDS011;47574;52.090;5.244;2023-10-31T01:38:34;7.2;;;4.61;;
61675;SDS011;47574;52.090;5.244;2023-10-31T01:40:12;9.5;;;6.4;;
61675;SDS011;47574;52.090;5.244;2023-10-31T01:43:29;7.4;;;5.9;;
61675;SDS011;47574;52.090;5.244;2023-10-31T01:45:06;11.0;;;7.0;;
61675;SDS011;47574;52.090;5.244;2023-10-31T01:46:42;11.1;;;8.0;;
61675;SDS011;47574;52.090;5.244;2023-10-31T01:48:18;13.0;;;9.0;;
61675;SDS011;47574;52.090;5.244;2023-10-31T01:51:31;12.6;;;8.4;;
61675;SDS011;47574;52.090;5.244;2023-10-31T01:53:07;13.4;;;9.4;;
61675;SDS011;47574;52.090;5.244;2023-10-31T01:54:43;12.2;;;8.2;;
61675;SDS011;47574;52.090;5.244;2023-10-31T01:57:57;13.7;;;8.9;;
61675;SDS011;47574;52.090;5.244;2023-10-31T01:59:34;13.4;;;8.71;;
61675;SDS011;47574;52.090;5.244;2023-10-31T02:01:10;13.0;;;9.9;;
61675;SDS011;47574;52.090;5.244;2023-10-31T02:04:23;13.6;;;10.21;;
61675;SDS011;47574;52.090;5.244;2023-10-31T02:06:00;15.0;;;10.3;;
61675;SDS011;47574;52.090;5.244;2023-10-31T02:07:36;16.9;;;10.5;;
61675;SDS011;47574;52.090;5.244;2023-10-31T02:10:48;12.4;;;9.81;;
61675;SDS011;47574;52.090;5.244;2023-10-31T02:12:32;11.9;;;9.6;;
61675;SDS011;47574;52.090;5.244;2023-10-31T02:14:08;15.4;;;9.81;;
61675;SDS011;47574;52.090;5.244;2023-10-31T02:15:44;11.7;;;8.4;;
61675;SDS011;47574;52.090;5.244;2023-10-31T02:18:57;10.21;;;7.9;;
61675;SDS011;47574;52.090;5.244;2023-10-31T02:20:33;9.31;;;8.31;;
61675;SDS011;47574;52.090;5.244;2023-10-31T02:22:10;10.21;;;8.2;;
61675;SDS011;47574;52.090;5.244;2023-10-31T02:25:33;10.8;;;7.7;;
61675;SDS011;47574;52.090;5.244;2023-10-31T02:27:09;9.0;;;7.1;;
61675;SDS011;47574;52.090;5.244;2023-10-31T02:28:45;11.3;;;7.6;;
61675;SDS011;47574;52.090;5.244;2023-10-31T02:30:21;9.4;;;7.3;;
61675;SDS011;47574;52.090;5.244;2023-10-31T02:33:33;9.9;;;7.2;;
61675;SDS011;47574;52.090;5.244;2023-10-31T02:35:09;9.4;;;6.5;;
61675;SDS011;47574;52.090;5.244;2023-10-31T02:36:45;6.2;;;5.5;;
61675;SDS011;47574;52.090;5.244;2023-10-31T02:39:57;8.71;;;5.9;;
61675;SDS011;47574;52.090;5.244;2023-10-31T02:41:34;8.5;;;6.1;;
61675;SDS011;47574;52.090;5.244;2023-10-31T02:43:10;9.4;;;6.4;;
61675;SDS011;47574;52.090;5.244;2023-10-31T02:46:22;8.2;;;6.1;;
61675;SDS011;47574;52.090;5.244;2023-10-31T02:47:58;6.8;;;6.1;;
61675;SDS011;47574;52.090;5.244;2023-10-31T02:49:34;9.6;;;6.1;;
61675;SDS011;47574;52.090;5.244;2023-10-31T02:51:10;9.31;;;6.5;;
61675;SDS011;47574;52.090;5.244;2023-10-31T02:54:22;8.5;;;6.7;;
61675;SDS011;47574;52.090;5.244;2023-10-31T02:55:58;8.71;;;6.8;;
61675;SDS011;47574;52.090;5.244;2023-10-31T02:57:35;9.31;;;6.6;;
61675;SDS011;47574;52.090;5.244;2023-10-31T03:00:47;10.0;;;7.4;;
61675;SDS011;47574;52.090;5.244;2023-10-31T03:02:23;9.1;;;6.9;;
61675;SDS011;47574;52.090;5.244;2023-10-31T03:03:59;8.6;;;7.0;;
61675;SDS011;47574;52.090;5.244;2023-10-31T03:07:11;10.21;;;6.9;;
61675;SDS011;47574;52.090;5.244;2023-10-31T03:08:47;10.1;;;6.6;;
61675;SDS011;47574;52.090;5.244;2023-10-31T03:10:23;8.5;;;6.5;;
61675;SDS011;47574;52.090;5.244;2023-10-31T03:13:35;9.5;;;7.0;;
61675;SDS011;47574;52.090;5.244;2023-10-31T03:15:12;8.0;;;5.5;;
61675;SDS011;47574;52.090;5.244;2023-10-31T03:16:48;6.5;;;5.3;;
61675;SDS011;47574;52.090;5.244;2023-10-31T03:18:24;5.9;;;4.7;;
61675;SDS011;47574;52.090;5.244;2023-10-31T03:21:36;6.0;;;4.1;;
61675;SDS011;47574;52.090;5.244;2023-10-31T03:23:12;6.8;;;4.61;;
61675;SDS011;47574;52.090;5.244;2023-10-31T03:24:48;4.5;;;3.3;;
61675;SDS011;47574;52.090;5.244;2023-10-31T03:28:01;4.91;;;3.0;;
61675;SDS011;47574;52.090;5.244;2023-10-31T03:29:37;4.3;;;2.5;;
61675;SDS011;47574;52.090;5.244;2023-10-31T03:31:14;2.9;;;2.1;;
61675;SDS011;47574;52.090;5.244;2023-10-31T03:34:27;2.5;;;1.6;;
61675;SDS011;47574;52.090;5.244;2023-10-31T03:36:03;2.6;;;1.6;;
61675;SDS011;47574;52.090;5.244;2023-10-31T03:37:40;2.5;;;1.3;;
61675;SDS011;47574;52.090;5.244;2023-10-31T03:39:16;1.8;;;1.11;;
61675;SDS011;47574;52.090;5.244;2023-10-31T03:42:29;2.6;;;1.4;;
61675;SDS011;47574;52.090;5.244;2023-10-31T03:44:05;2.5;;;1.6;;
61675;SDS011;47574;52.090;5.244;2023-10-31T03:45:41;1.7;;;1.0;;
61675;SDS011;47574;52.090;5.244;2023-10-31T03:48:54;1.9;;;1.0;;
61675;SDS011;47574;52.090;5.244;2023-10-31T03:50:30;1.9;;;1.11;;
61675;SDS011;47574;52.090;5.244;2023-10-31T03:52:06;4.1;;;1.3;;
61675;SDS011;47574;52.090;5.244;2023-10-31T03:55:18;1.9;;;1.4;;
61675;SDS011;47574;52.090;5.244;2023-10-31T03:56:54;2.0;;;1.11;;
61675;SDS011;47574;52.090;5.244;2023-10-31T03:58:30;2.6;;;1.4;;
61675;SDS011;47574;52.090;5.244;2023-10-31T04:01:43;3.0;;;1.8;;
61675;SDS011;47574;52.090;5.244;2023-10-31T04:03:19;3.6;;;1.5;;
61675;SDS011;47574;52.090;5.244;2023-10-31T04:04:56;2.9;;;1.6;;
61675;SDS011;47574;52.090;5.244;2023-10-31T04:06:32;2.0;;;1.6;;
61675;SDS011;47574;52.090;5.244;2023-10-31T04:09:44;2.7;;;1.6;;
61675;SDS011;47574;52.090;5.244;2023-10-31T04:11:20;3.8;;;1.8;;
61675;SDS011;47574;52.090;5.244;2023-10-31T04:12:56;2.7;;;1.7;;
61675;SDS011;47574;52.090;5.244;2023-10-31T04:16:10;2.4;;;1.4;;
61675;SDS011;47574;52.090;5.244;2023-10-31T04:17:47;4.7;;;1.6;;
61675;SDS011;47574;52.090;5.244;2023-10-31T04:19:23;2.7;;;1.5;;
61675;SDS011;47574;52.090;5.244;2023-10-31T04:22:36;2.5;;;1.7;;
61675;SDS011;47574;52.090;5.244;2023-10-31T04:24:12;2.1;;;1.7;;
61675;SDS011;47574;52.090;5.244;2023-10-31T04:25:48;2.21;;;1.5;;
61675;SDS011;47574;52.090;5.244;2023-10-31T04:27:24;3.2;;;1.7;;
61675;SDS011;47574;52.090;5.244;2023-10-31T04:30:36;3.2;;;1.2;;
61675;SDS011;47574;52.090;5.244;2023-10-31T04:32:12;1.3;;;1.0;;
61675;SDS011;47574;52.090;5.244;2023-10-31T04:33:48;0.8;;;0.8;;
61675;SDS011;47574;52.090;5.244;2023-10-31T04:37:00;1.11;;;0.8;;
61675;SDS011;47574;52.090;5.244;2023-10-31T04:38:37;1.5;;;0.8;;
61675;SDS011;47574;52.090;5.244;2023-10-31T04:40:13;1.9;;;0.9;;
61675;SDS011;47574;52.090;5.244;2023-10-31T04:43:25;1.7;;;0.9;;
61675;SDS011;47574;52.090;5.244;2023-10-31T04:45:01;1.7;;;0.9;;
61675;SDS011;47574;52.090;5.244;2023-10-31T04:46:37;0.8;;;0.6;;
61675;SDS011;47574;52.090;5.244;2023-10-31T04:49:49;1.3;;;1.0;;
61675;SDS011;47574;52.090;5.244;2023-10-31T04:51:25;1.2;;;0.5;;
61675;SDS011;47574;52.090;5.244;2023-10-31T04:53:01;1.7;;;0.7;;
61675;SDS011;47574;52.090;5.244;2023-10-31T04:54:38;0.6;;;0.5;;
61675;SDS011;47574;52.090;5.244;2023-10-31T04:57:52;2.21;;;0.8;;
61675;SDS011;47574;52.090;5.244;2023-10-31T04:59:28;1.11;;;0.7;;
61675;SDS011;47574;52.090;5.244;2023-10-31T05:01:08;1.9;;;0.7;;
61675;SDS011;47574;52.090;5.244;2023-10-31T05:04:20;1.11;;;0.6;;
61675;SDS011;47574;52.090;5.244;2023-10-31T05:05:56;1.11;;;0.8;;
61675;SDS011;47574;52.090;5.244;2023-10-31T05:07:32;0.9;;;0.6;;
61675;SDS011;47574;52.090;5.244;2023-10-31T05:10:44;1.4;;;0.6;;
61675;SDS011;47574;52.090;5.244;2023-10-31T05:12:21;1.3;;;0.5;;
61675;SDS011;47574;52.090;5.244;2023-10-31T05:13:57;1.7;;;0.7;;
61675;SDS011;47574;52.090;5.244;2023-10-31T05:15:33;1.4;;;0.8;;
61675;SDS011;47574;52.090;5.244;2023-10-31T05:18:45;2.1;;;0.5;;
61675;SDS011;47574;52.090;5.244;2023-10-31T05:20:21;2.0;;;0.7;;
61675;SDS011;47574;52.090;5.244;2023-10-31T05:21:57;1.3;;;0.6;;
61675;SDS011;47574;52.090;5.244;2023-10-31T05:25:09;1.8;;;0.8;;
61675;SDS011;47574;52.090;5.244;2023-10-31T05:26:45;1.7;;;0.8;;
61675;SDS011;47574;52.090;5.244;2023-10-31T05:28:21;1.7;;;0.9;;
61675;SDS011;47574;52.090;5.244;2023-10-31T05:31:34;1.2;;;1.11;;
61675;SDS011;47574;52.090;5.244;2023-10-31T05:33:11;1.9;;;1.2;;
61675;SDS011;47574;52.090;5.244;2023-10-31T05:34:47;1.3;;;1.2;;
61675;SDS011;47574;52.090;5.244;2023-10-31T05:36:23;2.6;;;1.6;;
61675;SDS011;47574;52.090;5.244;2023-10-31T05:39:37;1.8;;;1.4;;
61675;SDS011;47574;52.090;5.244;2023-10-31T05:41:13;2.1;;;1.6;;
61675;SDS011;47574;52.090;5.244;2023-10-31T05:42:49;2.31;;;1.9;;
61675;SDS011;47574;52.090;5.244;2023-10-31T05:46:02;3.0;;;2.0;;
61675;SDS011;47574;52.090;5.244;2023-10-31T05:47:38;3.5;;;1.9;;
61675;SDS011;47574;52.090;5.244;2023-10-31T05:49:14;2.9;;;1.9;;
61675;SDS011;47574;52.090;5.244;2023-10-31T05:52:27;2.7;;;2.21;;
61675;SDS011;47574;52.090;5.244;2023-10-31T05:54:04;5.11;;;2.9;;
61675;SDS011;47574;52.090;5.244;2023-10-31T05:55:42;3.5;;;2.6;;
61675;SDS011;47574;52.090;5.244;2023-10-31T05:57:18;4.1;;;2.9;;
61675;SDS011;47574;52.090;5.244;2023-10-31T06:00:30;3.9;;;3.0;;
61675;SDS011;47574;52.090;5.244;2023-10-31T06:02:07;3.6;;;3.0;;
61675;SDS011;47574;52.090;5.244;2023-10-31T06:03:43;4.7;;;3.6;;
61675;SDS011;47574;52.090;5.244;2023-10-31T06:06:55;3.8;;;3.3;;
61675;SDS011;47574;52.090;5.244;2023-10-31T06:08:31;5.0;;;3.2;;
61675;SDS011;47574;52.090;5.244;2023-10-31T06:10:07;5.2;;;3.6;;
61675;SDS011;47574;52.090;5.244;2023-10-31T06:13:19;4.61;;;3.6;;
61675;SDS011;47574;52.090;5.244;2023-10-31T06:14:55;4.2;;;3.8;;
61675;SDS011;47574;52.090;5.244;2023-10-31T06:16:31;3.3;;;3.0;;
61675;SDS011;47574;52.090;5.244;2023-10-31T06:19:44;4.91;;;3.7;;
61675;SDS011;47574;52.090;5.244;2023-10-31T06:21:20;3.4;;;2.7;;
61675;SDS011;47574;52.090;5.244;2023-10-31T06:22:56;4.41;;;2.7;;
61675;SDS011;47574;52.090;5.244;2023-10-31T06:24:32;3.3;;;2.5;;
61675;SDS011;47574;52.090;5.244;2023-10-31T06:27:44;3.9;;;2.21;;
61675;SDS011;47574;52.090;5.244;2023-10-31T06:29:20;2.21;;;2.0;;
61675;SDS011;47574;52.090;5.244;2023-10-31T06:30:56;1.6;;;1.5;;
61675;SDS011;47574;52.090;5.244;2023-10-31T06:34:09;3.7;;;1.7;;
61675;SDS011;47574;52.090;5.244;2023-10-31T06:35:45;2.0;;;1.5;;
61675;SDS011;47574;52.090;5.244;2023-10-31T06:37:21;4.61;;;1.2;;
61675;SDS011;47574;52.090;5.244;2023-10-31T06:40:33;2.0;;;1.4;;
61675;SDS011;47574;52.090;5.244;2023-10-31T06:42:09;1.4;;;1.11;;
61675;SDS011;47574;52.090;5.244;2023-10-31T06:43:45;2.0;;;1.2;;
61675;SDS011;47574;52.090;5.244;2023-10-31T06:46:57;1.11;;;0.9;;
61675;SDS011;47574;52.090;5.244;2023-10-31T06:48:33;1.8;;;0.8;;
61675;SDS011;47574;52.090;5.244;2023-10-31T06:50:10;2.31;;;1.11;;
61675;SDS011;47574;52.090;5.244;2023-10-31T06:51:46;1.3;;;0.8;;
61675;SDS011;47574;52.090;5.244;2023-10-31T06:54:58;1.5;;;0.9;;
61675;SDS011;47574;52.090;5.244;2023-10-31T06:56:34;1.5;;;0.7;;
61675;SDS011;47574;52.090;5.244;2023-10-31T06:58:10;1.2;;;0.8;;
61675;SDS011;47574;52.090;5.244;2023-10-31T07:01:22;3.2;;;1.0;;
61675;SDS011;47574;52.090;5.244;2023-10-31T07:02:59;2.4;;;0.9;;
61675;SDS011;47574;52.090;5.244;2023-10-31T07:04:35;2.1;;;0.8;;
61675;SDS011;47574;52.090;5.244;2023-10-31T07:07:48;0.8;;;0.7;;
61675;SDS011;47574;52.090;5.244;2023-10-31T07:09:24;2.21;;;1.0;;
61675;SDS011;47574;52.090;5.244;2023-10-31T07:11:01;1.0;;;0.6;;
61675;SDS011;47574;52.090;5.244;2023-10-31T07:12:37;2.21;;;1.0;;
61675;SDS011;47574;52.090;5.244;2023-10-31T07:15:50;2.21;;;0.8;;
61675;SDS011;47574;52.090;5.244;2023-10-31T07:17:26;2.31;;;0.9;;
61675;SDS011;47574;52.090;5.244;2023-10-31T07:19:02;2.4;;;0.9;;
61675;SDS011;47574;52.090;5.244;2023-10-31T07:22:14;1.4;;;1.0;;
61675;SDS011;47574;52.090;5.244;2023-10-31T07:23:50;1.11;;;0.8;;
61675;SDS011;47574;52.090;5.244;2023-10-31T07:25:27;3.3;;;0.9;;
61675;SDS011;47574;52.090;5.244;2023-10-31T07:28:40;1.4;;;1.0;;
61675;SDS011;47574;52.090;5.244;2023-10-31T07:30:16;2.5;;;1.5;;
61675;SDS011;47574;52.090;5.244;2023-10-31T07:31:52;2.5;;;1.2;;
61675;SDS011;47574;52.090;5.244;2023-10-31T07:35:04;2.9;;;1.2;;
61675;SDS011;47574;52.090;5.244;2023-10-31T07:36:41;2.0;;;1.11;;
61675;SDS011;47574;52.090;5.244;2023-10-31T07:38:17;2.21;;;0.8;;
61675;SDS011;47574;52.090;5.244;2023-10-31T07:39:53;2.31;;;1.0;;
61675;SDS011;47574;52.090;5.244;2023-10-31T07:43:06;1.7;;;1.0;;
61675;SDS011;47574;52.090;5.244;2023-10-31T07:44:42;1.6;;;1.2;;
61675;SDS011;47574;52.090;5.244;2023-10-31T07:46:18;3.1;;;1.2;;
61675;SDS011;47574;52.090;5.244;2023-10-31T07:49:30;2.0;;;1.2;;
61675;SDS011;47574;52.090;5.244;2023-10-31T07:51:06;2.0;;;1.4;;
61675;SDS011;47574;52.090;5.244;2023-10-31T07:52:42;1.9;;;1.4;;
61675;SDS011;47574;52.090;5.244;2023-10-31T07:55:54;2.5;;;1.7;;
61675;SDS011;47574;52.090;5.244;2023-10-31T07:57:30;3.3;;;1.7;;
61675;SDS011;47574;52.090;5.244;2023-10-31T07:59:07;2.31;;;1.8;;
61675;SDS011;47574;52.090;5.244;2023-10-31T08:00:43;2.21;;;2.0;;
61675;SDS011;47574;52.090;5.244;2023-10-31T08:03:55;2.9;;;2.0;;
61675;SDS011;47574;52.090;5.244;2023-10-31T08:05:31;3.9;;;2.31;;
61675;SDS011;47574;52.090;5.244;2023-10-31T08:07:07;2.5;;;2.21;;
61675;SDS011;47574;52.090;5.244;2023-10-31T08:10:19;3.2;;;2.1;;
61675;SDS011;47574;52.090;5.244;2023-10-31T08:11:55;4.41;;;2.4;;
61675;SDS011;47574;52.090;5.244;2023-10-31T08:13:31;2.4;;;2.1;;
61675;SDS011;47574;52.090;5.244;2023-10-31T08:16:46;4.1;;;2.1;;
61675;SDS011;47574;52.090;5.244;2023-10-31T08:18:23;3.9;;;2.31;;
61675;SDS011;47574;52.090;5.244;2023-10-31T08:19:59;3.9;;;2.0;;
61675;SDS011;47574;52.090;5.244;2023-10-31T08:23:12;3.9;;;2.31;;
61675;SDS011;47574;52.090;5.244;2023-10-31T08:24:48;4.91;;;2.6;;
61675;SDS011;47574;52.090;5.244;2023-10-31T08:26:24;2.4;;;2.1;;
61675;SDS011;47574;52.090;5.244;2023-10-31T08:28:00;3.9;;;2.31;;
61675;SDS011;47574;52.090;5.244;2023-10-31T08:31:12;3.7;;;2.31;;
61675;SDS011;47574;52.090;5.244;2023-10-31T08:32:49;5.8;;;2.6;;
61675;SDS011;47574;52.090;5.244;2023-10-31T08:34:25;4.0;;;2.6;;
61675;SDS011;47574;52.090;5.244;2023-10-31T08:37:39;4.91;;;2.5;;
61675;SDS011;47574;52.090;5.244;2023-10-31T08:39:15;4.7;;;2.21;;
61675;SDS011;47574;52.090;5.244;2023-10-31T08:40:51;4.2;;;2.4;;
61675;SDS011;47574;52.090;5.244;2023-10-31T08:44:03;4.7;;;2.5;;
61675;SDS011;47574;52.090;5.244;2023-10-31T08:45:39;4.8;;;2.4;;
61675;SDS011;47574;52.090;5.244;2023-10-31T08:47:15;4.5;;;2.5;;
61675;SDS011;47574;52.090;5.244;2023-10-31T08:48:51;5.8;;;2.5;;
61675;SDS011;47574;52.090;5.244;2023-10-31T08:52:04;4.2;;;2.0;;
61675;SDS011;47574;52.090;5.244;2023-10-31T08:53:40;4.7;;;2.4;;
61675;SDS011;47574;52.090;5.244;2023-10-31T08:55:16;6.0;;;2.6;;
61675;SDS011;47574;52.090;5.244;2023-10-31T08:58:28;5.8;;;2.7;;
61675;SDS011;47574;52.090;5.244;2023-10-31T09:00:05;5.0;;;2.7;;
61675;SDS011;47574;52.090;5.244;2023-10-31T09:01:42;5.9;;;2.5;;
61675;SDS011;47574;52.090;5.244;2023-10-31T09:04:54;5.2;;;3.0;;
61675;SDS011;47574;52.090;5.244;2023-10-31T09:06:31;4.7;;;2.9;;
61675;SDS011;47574;52.090;5.244;2023-10-31T09:08:07;7.6;;;3.7;;
61675;SDS011;47574;52.090;5.244;2023-10-31T09:11:19;4.7;;;3.1;;
61675;SDS011;47574;52.090;5.244;2023-10-31T09:12:55;6.4;;;3.1;;
61675;SDS011;47574;52.090;5.244;2023-10-31T09:14:31;6.4;;;3.4;;
61675;SDS011;47574;52.090;5.244;2023-10-31T09:16:07;6.8;;;3.7;;
61675;SDS011;47574;52.090;5.244;2023-10-31T09:19:20;4.41;;;3.4;;
61675;SDS011;47574;52.090;5.244;2023-10-31T09:20:56;5.7;;;3.4;;
61675;SDS011;47574;52.090;5.244;2023-10-31T09:22:32;5.8;;;3.1;;
61675;SDS011;47574;52.090;5.244;2023-10-31T09:25:46;5.5;;;3.6;;
61675;SDS011;47574;52.090;5.244;2023-10-31T09:27:22;7.1;;;3.8;;
61675;SDS011;47574;52.090;5.244;2023-10-31T09:28:58;8.4;;;4.1;;
61675;SDS011;47574;52.090;5.244;2023-10-31T09:32:10;7.6;;;3.5;;
61675;SDS011;47574;52.090;5.244;2023-10-31T09:33:46;8.5;;;3.8;;
61675;SDS011;47574;52.090;5.244;2023-10-31T09:35:22;5.9;;;3.4;;
61675;SDS011;47574;52.090;5.244;2023-10-31T09:36:58;8.5;;;4.3;;
61675;SDS011;47574;52.090;5.244;2023-10-31T09:40:11;7.5;;;4.1;;
61675;SDS011;47574;52.090;5.244;2023-10-31T09:41:47;7.0;;;3.6;;
61675;SDS011;47574;52.090;5.244;2023-10-31T09:43:23;5.6;;;3.5;;
61675;SDS011;47574;52.090;5.244;2023-10-31T09:46:35;5.5;;;3.6;;
61675;SDS011;47574;52.090;5.244;2023-10-31T09:48:12;6.4;;;3.3;;
61675;SDS011;47574;52.090;5.244;2023-10-31T09:49:49;5.4;;;3.1;;
61675;SDS011;47574;52.090;5.244;2023-10-31T09:53:03;7.9;;;4.0;;
61675;SDS011;47574;52.090;5.244;2023-10-31T09:54:41;7.5;;;4.0;;
61675;SDS011;47574;52.090;5.244;2023-10-31T09:56:18;9.21;;;4.3;;
61675;SDS011;47574;52.090;5.244;2023-10-31T09:57:55;6.8;;;4.3;;
61675;SDS011;47574;52.090;5.244;2023-10-31T10:01:07;5.5;;;3.6;;
61675;SDS011;47574;52.090;5.244;2023-10-31T10:02:43;8.31;;;4.3;;
61675;SDS011;47574;52.090;5.244;2023-10-31T10:04:19;6.7;;;3.6;;
61675;SDS011;47574;52.090;5.244;2023-10-31T10:07:33;9.81;;;3.7;;
61675;SDS011;47574;52.090;5.244;2023-10-31T10:09:10;6.4;;;3.4;;
61675;SDS011;47574;52.090;5.244;2023-10-31T10:10:46;7.5;;;3.5;;
61675;SDS011;47574;52.090;5.244;2023-10-31T10:14:00;5.7;;;3.4;;
61675;SDS011;47574;52.090;5.244;2023-10-31T10:15:43;8.2;;;4.0;;
61675;SDS011;47574;52.090;5.244;2023-10-31T10:17:20;7.3;;;3.9;;
61675;SDS011;47574;52.090;5.244;2023-10-31T10:19:03;10.21;;;3.7;;
61675;SDS011;47574;52.090;5.244;2023-10-31T10:22:32;8.2;;;4.3;;
61675;SDS011;47574;52.090;5.244;2023-10-31T10:24:08;9.1;;;4.5;;
61675;SDS011;47574;52.090;5.244;2023-10-31T10:25:44;7.8;;;4.41;;
61675;SDS011;47574;52.090;5.244;2023-10-31T10:27:25;7.9;;;4.61;;
61675;SDS011;47574;52.090;5.244;2023-10-31T10:30:37;6.0;;;4.0;;
61675;SDS011;47574;52.090;5.244;2023-10-31T10:32:13;6.5;;;4.0;;
61675;SDS011;47574;52.090;5.244;2023-10-31T10:33:50;9.5;;;4.7;;
61675;SDS011;47574;52.090;5.244;2023-10-31T10:37:03;6.4;;;4.2;;
61675;SDS011;47574;52.090;5.244;2023-10-31T10:38:41;7.6;;;4.91;;
61675;SDS011;47574;52.090;5.244;2023-10-31T10:40:22;8.0;;;4.61;;
61675;SDS011;47574;52.090;5.244;2023-10-31T10:41:58;6.9;;;4.61;;
61675;SDS011;47574;52.090;5.244;2023-10-31T10:45:13;7.8;;;4.5;;
61675;SDS011;47574;52.090;5.244;2023-10-31T10:46:53;8.5;;;4.41;;
61675;SDS011;47574;52.090;5.244;2023-10-31T10:48:30;6.8;;;4.41;;
61675;SDS011;47574;52.090;5.244;2023-10-31T10:50:14;9.1;;;4.7;;
61675;SDS011;47574;52.090;5.244;2023-10-31T10:53:34;7.7;;;4.0;;
61675;SDS011;47574;52.090;5.244;2023-10-31T10:55:21;7.8;;;4.2;;
61675;SDS011;47574;52.090;5.244;2023-10-31T10:57:03;8.6;;;3.5;;
61675;SDS011;47574;52.090;5.244;2023-10-31T10:58:50;7.6;;;4.1;;
61675;SDS011;47574;52.090;5.244;2023-10-31T11:02:06;7.6;;;3.8;;
61675;SDS011;47574;52.090;5.244;2023-10-31T11:03:43;6.2;;;3.4;;
61675;SDS011;47574;52.090;5.244;2023-10-31T11:05:21;6.5;;;3.0;;
61675;SDS011;47574;52.090;5.244;2023-10-31T11:06:59;4.5;;;2.6;;
61675;SDS011;47574;52.090;5.244;2023-10-31T11:10:14;6.0;;;2.4;;
61675;SDS011;47574;52.090;5.244;2023-10-31T11:11:51;6.4;;;2.4;;
61675;SDS011;47574;52.090;5.244;2023-10-31T11:13:29;6.5;;;2.4;;
61675;SDS011;47574;52.090;5.244;2023-10-31T11:16:47;4.2;;;2.0;;
61675;SDS011;47574;52.090;5.244;2023-10-31T11:18:29;5.7;;;2.1;;
61675;SDS011;47574;52.090;5.244;2023-10-31T11:20:07;6.1;;;2.0;;
61675;SDS011;47574;52.090;5.244;2023-10-31T11:21:53;5.8;;;2.21;;
61675;SDS011;47574;52.090;5.244;2023-10-31T11:25:06;4.3;;;1.6;;
61675;SDS011;47574;52.090;5.244;2023-10-31T11:26:50;6.2;;;2.31;;
61675;SDS011;47574;52.090;5.244;2023-10-31T11:28:27;6.2;;;2.9;;
61675;SDS011;47574;52.090;5.244;2023-10-31T11:30:05;7.7;;;3.1;;
61675;SDS011;47574;52.090;5.244;2023-10-31T11:33:19;5.6;;;2.6;;
61675;SDS011;47574;52.090;5.244;2023-10-31T11:34:56;6.1;;;2.7;;
61675;SDS011;47574;52.090;5.244;2023-10-31T11:36:32;12.1;;;3.8;;
61675;SDS011;47574;52.090;5.244;2023-10-31T11:40:17;7.0;;;3.2;;
61675;SDS011;47574;52.090;5.244;2023-10-31T11:42:00;7.0;;;3.2;;
61675;SDS011;47574;52.090;5.244;2023-10-31T11:43:52;7.2;;;3.4;;
61675;SDS011;47574;52.090;5.244;2023-10-31T11:45:30;7.6;;;4.1;;
61675;SDS011;47574;52.090;5.244;2023-10-31T11:47:14;9.1;;;4.3;;
61675;SDS011;47574;52.090;5.244;2023-10-31T11:48:52;8.4;;;4.7;;
61675;SDS011;47574;52.090;5.244;2023-10-31T11:52:13;9.0;;;5.11;;
61675;SDS011;47574;52.090;5.244;2023-10-31T11:53:51;8.0;;;5.3;;
61675;SDS011;47574;52.090;5.244;2023-10-31T11:55:28;7.8;;;5.4;;
61675;SDS011;47574;52.090;5.244;2023-10-31T11:58:40;6.3;;;4.91;;
61675;SDS011;47574;52.090;5.244;2023-10-31T12:00:20;7.1;;;5.11;;
61675;SDS011;47574;52.090;5.244;2023-10-31T12:01:57;10.1;;;6.2;;
61675;SDS011;47574;52.090;5.244;2023-10-31T12:03:36;11.3;;;7.1;;
61675;SDS011;47574;52.090;5.244;2023-10-31T12:06:56;11.1;;;9.21;;
61675;SDS011;47574;52.090;5.244;2023-10-31T12:08:35;11.3;;;8.2;;
61675;SDS011;47574;52.090;5.244;2023-10-31T12:10:16;11.7;;;9.0;;
61675;SDS011;47574;52.090;5.244;2023-10-31T12:11:57;12.6;;;8.9;;
61675;SDS011;47574;52.090;5.244;2023-10-31T12:15:12;11.8;;;9.71;;
61675;SDS011;47574;52.090;5.244;2023-10-31T12:16:49;12.2;;;9.4;;
61675;SDS011;47574;52.090;5.244;2023-10-31T12:18:25;14.3;;;11.2;;
61675;SDS011;47574;52.090;5.244;2023-10-31T12:21:40;22.5;;;15.3;;
61675;SDS011;47574;52.090;5.244;2023-10-31T12:23:17;20.8;;;14.7;;
61675;SDS011;47574;52.090;5.244;2023-10-31T12:24:59;21.9;;;15.1;;
61675;SDS011;47574;52.090;5.244;2023-10-31T12:26:36;21.3;;;14.2;;
61675;SDS011;47574;52.090;5.244;2023-10-31T12:29:59;21.7;;;14.4;;
61675;SDS011;47574;52.090;5.244;2023-10-31T12:31:38;18.8;;;13.2;;
61675;SDS011;47574;52.090;5.244;2023-10-31T12:33:15;20.2;;;13.4;;
61675;SDS011;47574;52.090;5.244;2023-10-31T12:34:52;19.91;;;14.1;;
61675;SDS011;47574;52.090;5.244;2023-10-31T12:38:04;21.1;;;14.0;;
61675;SDS011;47574;52.090;5.244;2023-10-31T12:39:41;17.2;;;13.6;;
61675;SDS011;47574;52.090;5.244;2023-10-31T12:41:17;19.0;;;14.6;;
61675;SDS011;47574;52.090;5.244;2023-10-31T12:44:30;18.2;;;14.3;;
61675;SDS011;47574;52.090;5.244;2023-10-31T12:46:27;23.1;;;14.9;;
61675;SDS011;47574;52.090;5.244;2023-10-31T12:48:05;19.7;;;15.1;;
61675;SDS011;47574;52.090;5.244;2023-10-31T12:49:44;20.7;;;16.3;;
61675;SDS011;47574;52.090;5.244;2023-10-31T12:52:56;22.1;;;16.5;;
61675;SDS011;47574;52.090;5.244;2023-10-31T12:54:33;22.0;;;15.6;;
61675;SDS011;47574;52.090;5.244;2023-10-31T12:56:10;22.7;;;15.5;;